Time;durP1;ratioP1;P1;durP2;ratioP2;P2;SDS_P1;SDS_P2;PMS_P1;PMS_P2;Temp;Humidity;BMP_temperature;BMP_pressure;BME280_temperature;BME280_humidity;BME280_pressure;Samples;Min_cycle;Max_cycle;Signal;HPM_P1;HPM_P2
2023/06/15 00:03:01;;;;;;;7.50;6.17;;;;;;;8.72;95.52;97791.56;6239877;28;20260;-48
2023/06/15 00:06:03;;;;;;;5.57;5.07;;;;;;;8.76;94.86;97791.91;6238432;28;20316;-48
2023/06/15 00:09:05;;;;;;;6.97;5.67;;;;;;;8.67;95.22;97777.31;6239413;28;20211;-48
2023/06/15 00:12:09;;;;;;;6.77;5.00;;;;;;;8.66;94.94;97773.06;6237679;28;20215;-50
2023/06/15 00:15:11;;;;;;;5.53;5.03;;;;;;;8.71;94.92;97775.84;6240150;28;20227;-46
2023/06/15 00:18:14;;;;;;;7.93;5.57;;;;;;;8.80;94.80;97787.75;6240777;28;20215;-50
2023/06/15 00:21:16;;;;;;;6.30;5.40;;;;;;;8.65;94.57;97771.44;6238764;28;20217;-48
2023/06/15 00:24:18;;;;;;;8.27;5.17;;;;;;;8.68;94.57;97785.09;6239338;28;20235;-49
2023/06/15 00:27:21;;;;;;;6.73;5.70;;;;;;;8.64;94.75;97783.91;6238894;28;20331;-46
2023/06/15 00:30:23;;;;;;;8.17;5.77;;;;;;;8.58;94.47;97786.66;6232768;28;20253;-46
2023/06/15 00:33:25;;;;;;;5.93;5.33;;;;;;;8.23;94.76;97742.19;6240175;28;20234;-50
2023/06/15 00:36:28;;;;;;;6.43;5.13;;;;;;;8.53;94.38;97785.50;6242653;28;20234;-50
2023/06/15 00:39:30;;;;;;;8.43;5.70;;;;;;;8.47;94.50;97783.75;6235500;28;20269;-47
2023/06/15 00:42:32;;;;;;;6.63;4.87;;;;;;;8.39;94.72;97773.44;6239304;28;20237;-46
2023/06/15 00:45:35;;;;;;;5.27;4.70;;;;;;;8.43;94.45;97787.88;6240034;28;20260;-49
2023/06/15 00:48:37;;;;;;;5.27;4.77;;;;;;;8.39;94.66;97791.22;6234096;28;20293;-51
2023/06/15 00:51:41;;;;;;;8.13;5.80;;;;;;;8.33;95.32;97792.09;6239672;28;20244;-49
2023/06/15 00:54:43;;;;;;;7.13;5.50;;;;;;;8.26;95.24;97794.81;6235771;28;20259;-47
2023/06/15 00:57:49;;;;;;;9.57;5.23;;;;;;;8.16;95.56;97787.38;6243514;28;20245;-48
2023/06/15 01:00:54;;;;;;;6.57;5.30;;;;;;;8.05;95.87;97774.06;6243724;28;20368;-47
2023/06/15 01:03:59;;;;;;;8.37;5.83;;;;;;;8.12;96.43;97791.50;6238930;28;20231;-47
2023/06/15 01:07:04;;;;;;;6.10;5.50;;;;;;;8.11;96.44;97786.44;6244768;28;20257;-47
2023/06/15 01:10:09;;;;;;;6.33;5.70;;;;;;;8.09;96.31;97786.66;6224351;28;20227;-46
2023/06/15 01:13:12;;;;;;;7.60;5.40;;;;;;;8.08;96.84;97786.88;6235818;28;20250;-49
2023/06/15 01:16:22;;;;;;;5.23;4.50;;;;;;;8.10;96.18;97792.78;6240126;28;20305;-46
2023/06/15 01:19:57;;;;;;;5.27;4.73;;;;;;;7.98;96.33;97756.41;6244990;28;20283;-47
2023/06/15 01:23:34;;;;;;;6.70;4.63;;;;;;;8.19;96.15;97784.28;6226025;28;20243;-49
2023/06/15 01:26:41;;;;;;;6.27;4.67;;;;;;;8.00;95.48;97758.81;6212450;28;20229;-49
2023/06/15 01:29:44;;;;;;;7.17;5.33;;;;;;;8.12;95.36;97778.25;6192976;28;20750;-47
2023/06/15 01:32:47;;;;;;;5.23;4.47;;;;;;;8.05;95.43;97776.72;6241292;28;20322;-48
2023/06/15 01:35:49;;;;;;;5.60;4.80;;;;;;;8.01;95.96;97774.50;6223661;28;20285;-49
2023/06/15 01:38:55;;;;;;;5.10;4.63;;;;;;;8.05;95.74;97780.19;6242493;28;20712;-50
2023/06/15 01:41:59;;;;;;;6.37;5.00;;;;;;;8.10;96.21;97780.31;6242201;28;20243;-50
2023/06/15 01:45:01;;;;;;;4.90;4.43;;;;;;;8.15;95.58;97774.34;6243688;28;20324;-46
2023/06/15 01:48:05;;;;;;;6.07;4.43;;;;;;;7.90;96.05;97734.66;6242968;28;20299;-49
2023/06/15 01:51:09;;;;;;;4.97;4.50;;;;;;;8.00;95.12;97785.34;6220303;28;20223;-49
2023/06/15 01:54:11;;;;;;;7.23;4.57;;;;;;;7.88;95.09;97779.16;6205909;28;20689;-49
2023/06/15 01:57:13;;;;;;;5.47;4.60;;;;;;;7.82;95.43;97777.38;6225111;28;20288;-48
2023/06/15 02:00:16;;;;;;;6.13;4.67;;;;;;;7.58;95.13;97756.00;6226076;28;20234;-47
2023/06/15 02:03:18;;;;;;;7.23;4.63;;;;;;;7.77;95.57;97778.03;6241002;28;20754;-49
2023/06/15 02:06:21;;;;;;;5.27;4.70;;;;;;;7.75;95.72;97780.94;6242916;28;21521;-46
2023/06/15 02:09:24;;;;;;;8.53;5.70;;;;;;;7.71;96.03;97776.28;6240838;28;20223;-48
2023/06/15 02:12:26;;;;;;;6.97;5.47;;;;;;;7.61;96.15;97778.66;6243086;28;20261;-48
2023/06/15 02:15:29;;;;;;;6.53;5.00;;;;;;;7.62;96.33;97780.25;6244002;28;20298;-46
2023/06/15 02:18:31;;;;;;;6.97;4.80;;;;;;;7.61;96.82;97786.59;6242313;28;20232;-49
2023/06/15 02:21:33;;;;;;;5.47;4.33;;;;;;;7.62;96.73;97780.25;6241728;28;20923;-47
2023/06/15 02:24:35;;;;;;;6.37;5.10;;;;;;;7.65;96.43;97785.13;6241279;28;20253;-47
2023/06/15 02:27:38;;;;;;;5.40;4.53;;;;;;;7.66;96.28;97786.75;6240621;28;20238;-47
2023/06/15 02:30:41;;;;;;;5.80;4.53;;;;;;;7.68;96.50;97790.78;6223780;28;20784;-50
2023/06/15 02:33:44;;;;;;;8.07;4.90;;;;;;;7.64;96.51;97791.47;6241717;28;20259;-49
2023/06/15 02:36:48;;;;;;;7.33;5.23;;;;;;;7.60;96.27;97785.78;6204502;28;20231;-47
2023/06/15 02:39:50;;;;;;;5.23;4.73;;;;;;;7.60;96.62;97790.28;6205138;28;20241;-45
2023/06/15 02:42:53;;;;;;;5.73;4.80;;;;;;;7.65;96.47;97793.88;6207170;28;20247;-46
2023/06/15 02:45:55;;;;;;;5.63;4.77;;;;;;;7.65;96.36;97796.53;6241446;28;20347;-48
2023/06/15 02:48:58;;;;;;;5.23;4.53;;;;;;;7.63;96.37;97787.16;6222692;28;20377;-49
2023/06/15 02:52:00;;;;;;;8.27;5.17;;;;;;;7.65;96.56;97787.78;6237877;28;20723;-47
2023/06/15 02:55:03;;;;;;;5.87;5.10;;;;;;;7.65;96.48;97777.97;6221575;28;20239;-50
2023/06/15 02:58:07;;;;;;;4.97;4.47;;;;;;;7.63;95.96;97785.31;6232504;28;20286;-50
2023/06/15 03:01:38;;;;;;;6.00;5.10;;;;;;;7.63;96.44;97792.47;6213957;28;20725;-48
2023/06/15 03:04:47;;;;;;;7.20;5.03;;;;;;;7.65;96.03;97790.44;6213159;28;20264;-50
2023/06/15 03:07:55;;;;;;;6.57;5.37;;;;;;;7.59;96.35;97788.66;6212544;28;20731;-49
2023/06/15 03:11:17;;;;;;;5.70;5.10;;;;;;;7.59;96.13;97788.66;6212487;28;20238;-47
2023/06/15 03:14:20;;;;;;;6.03;5.23;;;;;;;7.57;96.37;97791.50;6212457;28;20321;-47
2023/06/15 03:17:24;;;;;;;6.00;5.40;;;;;;;7.44;96.71;97781.88;6218503;28;20243;-49
2023/06/15 03:20:32;;;;;;;8.00;5.80;;;;;;;7.49;96.85;97789.97;6194667;28;20230;-45
2023/06/15 03:23:38;;;;;;;6.10;5.23;;;;;;;7.49;96.86;97794.47;6214387;28;20236;-47
2023/06/15 03:26:42;;;;;;;7.83;5.73;;;;;;;7.50;96.54;97794.25;6213918;28;20231;-46
2023/06/15 03:29:49;;;;;;;5.73;5.13;;;;;;;6.85;96.89;97687.06;6213284;28;20347;-48
2023/06/15 03:32:53;;;;;;;5.80;4.73;;;;;;;7.61;96.99;97800.66;6209716;28;20220;-47
2023/06/15 03:35:57;;;;;;;5.17;4.67;;;;;;;7.67;97.17;97809.56;6217523;28;20572;-49
2023/06/15 03:38:59;;;;;;;6.10;5.50;;;;;;;7.65;96.60;97809.00;6211060;28;20269;-47
2023/06/15 03:42:02;;;;;;;7.70;5.97;;;;;;;7.17;96.95;97727.50;6214296;28;20246;-47
2023/06/15 03:45:05;;;;;;;7.30;5.83;;;;;;;7.58;97.43;97798.44;6201008;28;20374;-49
2023/06/15 03:48:09;;;;;;;8.33;6.30;;;;;;;7.59;97.15;97812.53;6194618;28;20304;-50
2023/06/15 03:51:12;;;;;;;6.57;5.87;;;;;;;7.37;97.60;97777.66;6196608;28;20211;-48
2023/06/15 03:54:16;;;;;;;8.03;6.30;;;;;;;7.58;98.00;97805.56;6211521;28;20212;-49
2023/06/15 03:57:20;;;;;;;6.63;5.93;;;;;;;7.60;98.02;97814.13;6232170;28;20403;-47
2023/06/15 04:00:24;;;;;;;5.73;5.23;;;;;;;7.73;97.96;97819.28;6205424;28;20601;-50
2023/06/15 04:03:27;;;;;;;7.53;6.50;;;;;;;7.52;98.23;97772.81;6218939;28;20690;-46
2023/06/15 04:06:29;;;;;;;7.70;6.33;;;;;;;7.84;97.80;97815.94;6237717;28;20234;-47
2023/06/15 04:09:32;;;;;;;7.40;6.37;;;;;;;7.81;98.04;97810.25;6222735;28;20227;-49
2023/06/15 04:12:34;;;;;;;7.00;6.30;;;;;;;7.86;97.83;97821.00;6222348;28;20285;-50
2023/06/15 04:15:37;;;;;;;6.47;5.87;;;;;;;7.88;97.71;97817.13;6219803;28;20238;-49
2023/06/15 04:18:40;;;;;;;6.53;5.70;;;;;;;7.92;97.82;97820.91;6213015;28;20237;-47
2023/06/15 04:21:43;;;;;;;8.43;6.30;;;;;;;7.75;97.88;97796.84;6220867;28;20243;-50
2023/06/15 04:24:45;;;;;;;8.13;6.67;;;;;;;7.98;98.03;97827.22;6220346;28;20247;-49
2023/06/15 04:27:48;;;;;;;6.83;6.13;;;;;;;7.78;98.09;97784.16;6198490;28;20233;-51
2023/06/15 04:31:21;;;;;;;6.17;5.57;;;;;;;8.04;98.23;97834.28;6204639;28;20313;-48
2023/06/15 04:34:27;;;;;;;6.53;5.43;;;;;;;8.12;98.46;97823.34;6201640;28;20309;-49
2023/06/15 04:37:29;;;;;;;6.87;5.50;;;;;;;8.17;97.96;97825.34;6206033;28;20243;-47
2023/06/15 04:40:33;;;;;;;7.33;5.53;;;;;;;8.20;98.33;97831.00;6205199;28;20678;-49
2023/06/15 04:43:36;;;;;;;5.90;5.20;;;;;;;8.10;98.51;97808.69;6225734;28;20235;-53
2023/06/15 04:46:41;;;;;;;6.53;5.07;;;;;;;8.32;98.73;97831.06;6222453;28;20702;-46
2023/06/15 04:49:44;;;;;;;6.90;6.20;;;;;;;8.38;98.69;97830.22;6218499;28;20284;-47
2023/06/15 04:52:48;;;;;;;7.30;6.53;;;;;;;8.39;98.30;97831.84;6237734;28;20231;-49
2023/06/15 04:55:50;;;;;;;7.53;6.20;;;;;;;8.40;98.60;97830.00;6237282;28;20238;-47
2023/06/15 04:58:53;;;;;;;8.37;6.73;;;;;;;8.16;98.51;97795.34;6238357;28;20230;-47
2023/06/15 05:01:55;;;;;;;6.97;6.37;;;;;;;8.36;98.80;97812.84;6239273;28;20223;-47
2023/06/15 05:05:03;;;;;;;6.10;5.40;;;;;;;8.52;98.93;97826.38;6222064;28;20255;-48
2023/06/15 05:08:05;;;;;;;6.77;6.07;;;;;;;8.60;99.04;97837.69;6222288;28;20236;-47
2023/06/15 05:11:07;;;;;;;7.17;6.47;;;;;;;8.50;99.03;97809.84;6240784;28;20309;-49
2023/06/15 05:14:09;;;;;;;7.47;6.30;;;;;;;8.53;98.96;97797.97;6201724;28;20315;-45
2023/06/15 05:17:12;;;;;;;7.17;6.47;;;;;;;8.82;99.12;97835.34;6224757;28;20232;-48
2023/06/15 05:20:15;;;;;;;6.67;5.97;;;;;;;8.88;99.15;97840.56;6238758;28;20231;-44
2023/06/15 05:23:19;;;;;;;6.10;5.13;;;;;;;8.99;99.51;97842.44;6221409;28;20239;-44
2023/06/15 05:26:22;;;;;;;5.97;5.37;;;;;;;8.94;98.91;97828.22;6220347;28;20729;-45
2023/06/15 05:29:28;;;;;;;6.03;5.43;;;;;;;9.01;99.38;97820.94;6217894;28;20284;-46
2023/06/15 05:32:34;;;;;;;6.87;5.00;;;;;;;9.32;99.95;97846.44;6219783;28;20236;-46
2023/06/15 05:35:37;;;;;;;5.57;4.97;;;;;;;9.45;99.69;97840.88;6203587;28;20249;-44
2023/06/15 05:38:39;;;;;;;7.43;6.63;;;;;;;9.57;99.84;97839.06;6202516;28;20229;-45
2023/06/15 05:41:43;;;;;;;8.20;7.37;;;;;;;9.73;100.00;97842.88;6240304;28;20240;-46
2023/06/15 05:44:45;;;;;;;8.43;7.53;;;;;;;9.76;100.00;97825.66;6242088;28;20266;-45
2023/06/15 05:47:49;;;;;;;7.67;6.97;;;;;;;10.01;100.00;97844.00;6222641;28;20245;-45
2023/06/15 05:50:53;;;;;;;7.77;6.97;;;;;;;10.13;100.00;97847.44;6206362;28;20258;-47
2023/06/15 05:53:56;;;;;;;7.60;6.47;;;;;;;10.28;100.00;97844.31;6221127;28;20222;-44
2023/06/15 05:56:58;;;;;;;7.30;6.60;;;;;;;10.43;100.00;97851.81;6224970;28;20265;-46
2023/06/15 06:00:03;;;;;;;6.57;5.93;;;;;;;10.58;100.00;97846.78;6229601;28;20708;-46
2023/06/15 06:03:15;;;;;;;5.60;5.10;;;;;;;10.75;100.00;97841.50;6241091;28;20697;-45
2023/06/15 06:06:22;;;;;;;6.97;6.10;;;;;;;10.91;100.00;97843.38;6224755;28;20281;-48
2023/06/15 06:09:25;;;;;;;5.90;5.40;;;;;;;11.08;100.00;97844.25;6241765;28;20272;-48
2023/06/15 06:12:28;;;;;;;5.60;5.10;;;;;;;11.26;100.00;97840.50;6223665;28;20283;-45
2023/06/15 06:15:30;;;;;;;6.00;5.40;;;;;;;11.26;100.00;97813.03;6205633;28;20893;-44
2023/06/15 06:18:33;;;;;;;5.77;5.27;;;;;;;11.69;100.00;97851.59;6241193;28;20240;-47
2023/06/15 06:21:35;;;;;;;7.07;6.10;;;;;;;11.92;100.00;97858.59;6242524;28;20231;-46
2023/06/15 06:24:37;;;;;;;8.23;6.90;;;;;;;12.21;100.00;97856.59;6241171;28;20249;-45
2023/06/15 06:27:41;;;;;;;7.70;6.70;;;;;;;12.49;99.83;97852.94;6225085;28;20236;-46
2023/06/15 06:30:43;;;;;;;8.40;6.80;;;;;;;12.78;98.80;97857.00;6241187;28;20231;-44
2023/06/15 06:33:45;;;;;;;7.80;6.33;;;;;;;13.07;97.40;97854.88;6236014;28;20594;-45
2023/06/15 06:36:47;;;;;;;6.63;6.00;;;;;;;13.31;96.76;97855.41;6240134;28;20234;-47
2023/06/15 06:39:50;;;;;;;9.50;6.83;;;;;;;13.49;95.35;97854.19;6243151;28;20775;-46
2023/06/15 06:42:52;;;;;;;7.30;5.43;;;;;;;13.70;94.82;97857.03;6241738;28;20232;-47
2023/06/15 06:45:55;;;;;;;8.10;5.90;;;;;;;13.92;94.23;97852.34;6223809;28;20250;-45
2023/06/15 06:48:57;;;;;;;6.67;6.07;;;;;;;14.13;92.94;97850.59;6238356;28;20224;-48
2023/06/15 06:51:59;;;;;;;6.73;6.10;;;;;;;14.35;92.18;97855.78;6224294;28;20232;-47
2023/06/15 06:55:03;;;;;;;8.63;5.90;;;;;;;14.57;90.11;97861.00;6239538;28;20230;-47
2023/06/15 06:58:05;;;;;;;6.27;5.50;;;;;;;14.74;89.93;97858.13;6237370;28;20228;-48
2023/06/15 07:01:07;;;;;;;6.33;5.23;;;;;;;14.89;89.46;97861.63;6239196;28;20251;-48
2023/06/15 07:04:10;;;;;;;7.70;5.23;;;;;;;15.05;88.60;97857.09;6233944;28;20294;-45
2023/06/15 07:07:12;;;;;;;5.73;5.23;;;;;;;15.17;87.70;97865.72;6239043;28;20235;-50
2023/06/15 07:10:14;;;;;;;5.73;5.13;;;;;;;15.31;86.93;97860.59;6208417;28;20226;-46
2023/06/15 07:13:16;;;;;;;5.67;5.13;;;;;;;15.42;86.30;97861.44;6241384;28;20227;-45
2023/06/15 07:16:19;;;;;;;5.03;4.50;;;;;;;15.52;85.46;97860.59;6237800;28;20230;-46
2023/06/15 07:19:21;;;;;;;5.70;5.20;;;;;;;15.62;85.24;97857.94;6241089;28;20239;-48
2023/06/15 07:22:23;;;;;;;6.17;5.17;;;;;;;15.75;83.97;97868.16;6238382;28;20388;-45
2023/06/15 07:25:26;;;;;;;6.23;5.27;;;;;;;15.84;83.49;97861.16;6218599;28;20327;-45
2023/06/15 07:28:28;;;;;;;7.10;5.53;;;;;;;15.98;80.40;97859.50;6245670;28;20223;-46
2023/06/15 07:31:30;;;;;;;5.53;5.03;;;;;;;16.12;81.47;97862.44;6234377;28;20215;-46
2023/06/15 07:34:33;;;;;;;6.70;5.37;;;;;;;16.23;80.11;97858.63;6236599;28;20246;-45
2023/06/15 07:37:35;;;;;;;5.87;5.20;;;;;;;16.43;72.75;97856.97;6220875;28;20782;-49
2023/06/15 07:40:37;;;;;;;7.50;4.60;;;;;;;16.64;75.03;97861.16;6240845;28;20215;-47
2023/06/15 07:43:39;;;;;;;5.77;4.80;;;;;;;16.79;74.70;97857.63;6235759;28;20261;-49
2023/06/15 07:46:42;;;;;;;6.00;4.90;;;;;;;16.90;73.40;97855.69;6237893;28;20235;-46
2023/06/15 07:49:44;;;;;;;5.40;4.87;;;;;;;17.00;69.70;97861.03;6237438;28;20377;-47
2023/06/15 07:52:51;;;;;;;6.67;4.53;;;;;;;17.14;70.12;97856.63;6235679;28;20319;-49
2023/06/15 07:55:53;;;;;;;4.80;4.30;;;;;;;17.21;67.87;97850.91;6238507;28;20223;-47
2023/06/15 07:58:56;;;;;;;5.03;4.37;;;;;;;17.20;65.54;97836.66;6238512;28;20227;-48
2023/06/15 08:01:59;;;;;;;5.00;4.23;;;;;;;17.37;65.56;97852.41;6222940;28;20736;-48
2023/06/15 08:05:01;;;;;;;4.90;4.33;;;;;;;17.48;60.27;97855.81;6236706;28;20261;-45
2023/06/15 08:08:04;;;;;;;4.80;4.30;;;;;;;17.53;61.41;97861.16;6233029;28;20231;-46
2023/06/15 08:11:06;;;;;;;4.20;3.80;;;;;;;17.64;55.64;97864.59;6239752;28;20239;-46
2023/06/15 08:14:08;;;;;;;5.90;4.67;;;;;;;17.68;57.97;97855.63;6222085;28;20232;-46
2023/06/15 08:17:10;;;;;;;5.03;3.87;;;;;;;17.70;62.91;97858.06;6218031;28;20246;-49
2023/06/15 08:20:13;;;;;;;3.93;3.50;;;;;;;17.41;61.75;97836.50;6236451;28;20235;-47
2023/06/15 08:23:15;;;;;;;5.70;4.30;;;;;;;17.42;56.61;97865.03;6221831;28;20319;-50
2023/06/15 08:26:17;;;;;;;4.70;4.30;;;;;;;17.61;57.70;97862.44;6237245;28;20691;-47
2023/06/15 08:29:20;;;;;;;6.60;4.00;;;;;;;17.70;62.16;97845.41;6235310;28;20284;-46
2023/06/15 08:32:29;;;;;;;4.57;4.17;;;;;;;17.71;65.59;97865.06;6201629;28;20223;-49
2023/06/15 08:35:31;;;;;;;5.17;4.43;;;;;;;17.65;62.58;97831.97;6238182;28;20284;-45
2023/06/15 08:38:33;;;;;;;5.80;4.60;;;;;;;18.13;55.36;97855.50;6236086;28;20588;-47
2023/06/15 08:41:37;;;;;;;4.73;4.27;;;;;;;18.28;56.21;97858.84;6237885;28;20234;-47
2023/06/15 08:44:40;;;;;;;4.90;4.40;;;;;;;18.38;52.48;97854.44;6235593;28;20278;-49
2023/06/15 08:47:43;;;;;;;4.77;4.37;;;;;;;18.63;51.60;97856.81;6238373;28;20377;-49
2023/06/15 08:50:46;;;;;;;5.23;4.73;;;;;;;18.58;51.47;97839.88;6237632;28;20234;-49
2023/06/15 08:53:56;;;;;;;5.57;4.50;;;;;;;18.74;52.42;97854.81;6206057;28;20237;-49
2023/06/15 08:56:58;;;;;;;4.13;3.73;;;;;;;18.78;56.00;97858.53;6235764;28;20247;-49
2023/06/15 09:00:00;;;;;;;4.90;4.40;;;;;;;18.80;59.30;97856.34;6238562;28;20723;-50
2023/06/15 09:03:06;;;;;;;5.63;3.70;;;;;;;18.83;52.55;97855.78;6237866;28;20601;-49
2023/06/15 09:06:09;;;;;;;4.70;4.13;;;;;;;18.97;54.67;97850.44;6237562;28;20254;-49
2023/06/15 09:09:12;;;;;;;4.70;4.13;;;;;;;19.21;47.85;97851.19;6238190;28;20239;-49
2023/06/15 09:12:18;;;;;;;4.73;3.70;;;;;;;19.15;48.09;97857.72;6232802;28;20440;-48
2023/06/15 09:15:27;;;;;;;5.13;4.37;;;;;;;18.99;48.53;97859.06;6240085;28;20233;-48
2023/06/15 09:18:41;;;;;;;4.90;4.10;;;;;;;18.60;56.30;97818.81;6236794;28;20713;-49
2023/06/15 09:21:50;;;;;;;6.10;4.40;;;;;;;18.92;51.43;97848.63;6227918;28;20723;-46
2023/06/15 09:24:52;;;;;;;5.60;4.10;;;;;;;19.05;55.93;97852.47;6223734;28;20327;-46
2023/06/15 09:28:01;;;;;;;4.70;4.23;;;;;;;18.99;57.00;97854.44;6245749;28;20321;-48
2023/06/15 09:31:04;;;;;;;4.70;4.30;;;;;;;18.98;53.29;97852.84;6221970;28;20322;-47
2023/06/15 09:34:13;;;;;;;5.97;4.43;;;;;;;18.87;52.88;97858.69;6242674;28;20322;-49
2023/06/15 09:37:16;;;;;;;4.57;4.17;;;;;;;18.77;53.93;97860.44;6239431;28;20231;-46
2023/06/15 09:40:18;;;;;;;5.53;4.40;;;;;;;18.69;57.21;97850.28;6241490;28;20586;-47
2023/06/15 09:43:21;;;;;;;4.97;3.83;;;;;;;18.50;59.15;97825.13;6238380;28;20288;-49
2023/06/15 09:46:28;;;;;;;5.67;5.00;;;;;;;18.77;54.46;97843.44;6246394;28;20239;-48
2023/06/15 09:49:31;;;;;;;4.40;3.80;;;;;;;18.80;52.10;97819.34;6240432;28;20326;-46
2023/06/15 09:52:40;;;;;;;5.80;4.10;;;;;;;19.19;48.55;97841.75;6242100;28;20224;-48
2023/06/15 09:55:45;;;;;;;5.57;4.30;;;;;;;19.38;50.81;97844.44;6245303;28;20605;-49
2023/06/15 09:58:48;;;;;;;4.73;4.23;;;;;;;19.24;49.78;97841.66;6240921;28;20295;-45
2023/06/15 10:01:55;;;;;;;6.83;4.57;;;;;;;19.18;55.09;97840.16;6245349;28;20219;-47
2023/06/15 10:04:58;;;;;;;6.63;4.50;;;;;;;19.20;54.19;97833.34;6234981;28;20247;-46
2023/06/15 10:08:04;;;;;;;4.30;3.90;;;;;;;19.33;45.91;97838.00;6241048;28;20235;-47
2023/06/15 10:11:11;;;;;;;5.47;4.27;;;;;;;19.38;44.92;97831.72;6240837;28;20234;-46
2023/06/15 10:14:23;;;;;;;4.77;3.97;;;;;;;19.57;44.94;97837.09;6243147;28;20246;-46
2023/06/15 10:17:33;;;;;;;4.27;3.93;;;;;;;19.63;44.44;97829.72;6240615;28;20220;-49
2023/06/15 10:20:36;;;;;;;4.53;4.13;;;;;;;19.61;45.17;97816.50;6242013;28;20246;-46
2023/06/15 10:23:40;;;;;;;4.77;4.30;;;;;;;19.84;48.52;97826.34;6239028;28;20223;-46
2023/06/15 10:26:44;;;;;;;4.13;3.73;;;;;;;19.76;46.37;97834.38;6239949;28;20574;-46
2023/06/15 10:30:04;;;;;;;5.53;4.63;;;;;;;19.59;45.44;97833.00;6237010;28;20223;-49
2023/06/15 10:33:28;;;;;;;4.20;3.80;;;;;;;19.56;46.59;97827.38;6234617;28;20216;-47
2023/06/15 10:36:41;;;;;;;6.60;4.03;;;;;;;19.50;52.07;97831.25;6235182;28;20726;-45
2023/06/15 10:39:46;;;;;;;4.70;4.20;;;;;;;19.81;48.26;97821.56;6235860;28;20318;-47
2023/06/15 10:42:49;;;;;;;6.33;4.40;;;;;;;19.97;45.92;97823.97;6241768;28;20607;-49
2023/06/15 10:45:52;;;;;;;4.20;3.80;;;;;;;20.00;43.39;97828.78;6240467;28;20605;-49
2023/06/15 10:48:55;;;;;;;5.00;4.17;;;;;;;19.92;43.38;97827.56;6203080;28;20618;-48
2023/06/15 10:51:57;;;;;;;4.33;3.93;;;;;;;19.93;45.99;97814.84;6240994;28;20232;-46
2023/06/15 10:55:06;;;;;;;5.40;4.47;;;;;;;20.09;46.30;97811.53;6241289;28;20241;-48
2023/06/15 10:58:18;;;;;;;4.47;4.07;;;;;;;20.27;47.11;97814.47;6236871;28;20370;-49
2023/06/15 11:01:22;;;;;;;5.17;4.00;;;;;;;20.33;41.24;97811.34;6236104;28;20236;-47
2023/06/15 11:04:30;;;;;;;5.13;3.87;;;;;;;20.31;41.69;97796.53;6238971;28;20228;-48
2023/06/15 11:07:37;;;;;;;3.87;3.53;;;;;;;20.25;46.09;97820.19;6235361;28;20232;-46
2023/06/15 11:10:43;;;;;;;4.20;3.90;;;;;;;20.07;42.22;97780.50;6240931;28;20317;-51
2023/06/15 11:13:57;;;;;;;4.43;4.03;;;;;;;20.29;42.83;97804.13;6239170;28;20224;-50
2023/06/15 11:17:04;;;;;;;4.57;3.90;;;;;;;20.37;41.23;97814.25;6238156;28;20239;-51
2023/06/15 11:20:08;;;;;;;3.90;3.60;;;;;;;20.37;42.29;97792.59;6238754;28;20231;-47
2023/06/15 11:23:14;;;;;;;3.60;3.30;;;;;;;20.33;42.89;97799.72;6241693;28;20235;-48
2023/06/15 11:26:17;;;;;;;3.60;3.30;;;;;;;20.32;39.46;97782.69;6235570;28;20608;-48
2023/06/15 11:29:22;;;;;;;4.33;3.93;;;;;;;20.60;39.50;97796.22;6240492;28;20365;-50
2023/06/15 11:32:26;;;;;;;4.07;3.53;;;;;;;20.53;38.02;97776.88;6238908;28;20309;-46
2023/06/15 11:35:30;;;;;;;4.20;3.80;;;;;;;20.58;40.51;97806.53;6244488;28;20601;-49
2023/06/15 11:38:33;;;;;;;5.57;3.60;;;;;;;20.77;38.08;97799.06;6240517;28;20253;-47
2023/06/15 11:41:36;;;;;;;5.37;3.80;;;;;;;20.57;37.07;97788.69;6239870;28;20223;-49
2023/06/15 11:44:41;;;;;;;4.73;3.57;;;;;;;20.80;38.44;97793.06;6241464;28;20704;-46
2023/06/15 11:47:44;;;;;;;3.90;3.50;;;;;;;20.54;38.45;97763.06;6239243;28;20235;-47
2023/06/15 11:50:47;;;;;;;3.70;3.40;;;;;;;20.67;39.65;97782.25;6201997;28;20231;-47
2023/06/15 11:53:52;;;;;;;4.60;4.13;;;;;;;20.80;40.86;97793.06;6239024;28;20390;-49
2023/06/15 11:56:58;;;;;;;3.97;3.57;;;;;;;21.21;39.12;97770.41;6234776;28;20243;-52
2023/06/15 12:00:00;;;;;;;5.30;3.93;;;;;;;21.20;39.20;97782.38;6241378;28;20223;-45
2023/06/15 12:03:13;;;;;;;4.93;3.90;;;;;;;21.12;37.27;97777.69;6236002;28;20228;-46
2023/06/15 12:06:19;;;;;;;4.70;3.60;;;;;;;21.09;37.96;97781.03;6239401;28;20239;-49
2023/06/15 12:09:22;;;;;;;3.93;3.50;;;;;;;21.12;38.27;97770.34;6233752;28;20755;-48
2023/06/15 12:12:30;;;;;;;4.43;4.00;;;;;;;21.06;38.39;97733.66;6238636;28;20234;-47
2023/06/15 12:15:37;;;;;;;3.90;3.60;;;;;;;21.33;40.51;97759.88;6240125;28;20228;-48
2023/06/15 12:18:39;;;;;;;4.13;3.73;;;;;;;21.30;36.37;97754.22;6240365;28;20227;-47
2023/06/15 12:21:43;;;;;;;4.20;3.80;;;;;;;21.24;36.73;97756.25;6238903;28;20604;-48
2023/06/15 12:24:48;;;;;;;4.80;3.80;;;;;;;21.33;40.95;97756.34;6221207;28;20230;-49
2023/06/15 12:27:51;;;;;;;3.80;3.50;;;;;;;21.35;37.17;97749.50;6238503;28;20231;-47
2023/06/15 12:31:02;;;;;;;3.63;3.33;;;;;;;21.29;38.15;97742.59;6233456;28;20234;-47
2023/06/15 12:34:07;;;;;;;3.87;3.47;;;;;;;21.53;37.72;97730.63;6242347;28;20236;-44
2023/06/15 12:37:10;;;;;;;4.63;4.23;;;;;;;21.29;39.73;97745.31;6233740;28;20717;-49
2023/06/15 12:40:13;;;;;;;3.93;3.53;;;;;;;21.11;40.20;97741.66;6236810;28;20269;-47
2023/06/15 12:43:16;;;;;;;4.53;3.57;;;;;;;21.06;39.51;97720.13;6238309;28;20734;-46
2023/06/15 12:46:18;;;;;;;3.40;3.10;;;;;;;21.44;36.49;97708.09;6236956;28;20266;-47
2023/06/15 12:49:21;;;;;;;3.97;3.50;;;;;;;21.52;36.56;97735.22;6236776;28;20869;-46
2023/06/15 12:52:23;;;;;;;3.27;2.97;;;;;;;21.57;35.79;97728.88;6239686;28;20334;-48
2023/06/15 12:55:26;;;;;;;3.00;2.70;;;;;;;21.68;35.62;97730.22;6246641;28;20230;-45
2023/06/15 12:58:28;;;;;;;3.03;2.70;;;;;;;21.54;35.37;97729.53;6242959;28;20242;-45
2023/06/15 13:01:32;;;;;;;3.50;3.20;;;;;;;21.08;36.27;97652.09;6221684;28;20280;-48
2023/06/15 13:04:34;;;;;;;3.07;2.77;;;;;;;21.54;36.06;97730.31;6244574;28;20717;-47
2023/06/15 13:07:37;;;;;;;5.40;4.10;;;;;;;21.55;37.54;97726.50;6243238;28;20238;-46
2023/06/15 13:10:40;;;;;;;3.33;3.00;;;;;;;21.52;37.05;97726.31;6243941;28;20290;-46
2023/06/15 13:13:42;;;;;;;4.40;3.30;;;;;;;21.58;37.94;97736.72;6239224;28;20219;-46
2023/06/15 13:16:44;;;;;;;3.80;3.50;;;;;;;21.49;36.87;97726.94;6242816;28;20228;-44
2023/06/15 13:19:47;;;;;;;3.33;3.03;;;;;;;21.17;40.29;97696.28;6243359;28;20325;-47
2023/06/15 13:22:52;;;;;;;3.80;3.40;;;;;;;21.49;39.47;97726.94;6245825;28;20235;-46
2023/06/15 13:25:57;;;;;;;3.60;3.20;;;;;;;21.51;37.35;97736.34;6238187;28;20246;-44
2023/06/15 13:28:59;;;;;;;3.83;3.40;;;;;;;21.58;36.69;97728.59;6242365;28;20615;-47
2023/06/15 13:32:03;;;;;;;3.70;3.40;;;;;;;21.58;37.72;97728.59;6240023;28;20310;-45
2023/06/15 13:35:07;;;;;;;3.27;2.97;;;;;;;21.63;35.39;97728.44;6242923;28;20246;-44
2023/06/15 13:38:12;;;;;;;4.53;3.20;;;;;;;21.45;36.62;97698.84;6241061;28;20729;-44
2023/06/15 13:41:17;;;;;;;3.70;3.30;;;;;;;21.53;34.79;97698.09;6222376;28;20642;-46
2023/06/15 13:44:19;;;;;;;3.63;3.33;;;;;;;21.79;35.31;97719.91;6241062;28;20233;-48
2023/06/15 13:47:22;;;;;;;3.43;3.13;;;;;;;21.86;39.30;97723.72;6242304;28;20603;-49
2023/06/15 13:50:26;;;;;;;3.93;3.43;;;;;;;21.88;37.27;97718.81;6214479;28;20234;-47
2023/06/15 13:53:28;;;;;;;4.03;3.63;;;;;;;21.82;36.49;97722.78;6241327;28;20228;-45
2023/06/15 13:56:31;;;;;;;3.70;3.10;;;;;;;21.80;37.43;97718.78;6240876;28;20235;-47
2023/06/15 13:59:35;;;;;;;3.57;3.27;;;;;;;21.64;39.35;97719.19;6241380;28;20234;-46
2023/06/15 14:02:40;;;;;;;3.40;3.10;;;;;;;21.67;41.29;97714.25;6208714;28;20354;-48
2023/06/15 14:05:43;;;;;;;4.10;3.30;;;;;;;21.64;41.42;97711.06;6238891;28;20923;-46
2023/06/15 14:08:47;;;;;;;4.27;3.80;;;;;;;21.85;38.08;97714.00;6242981;28;20242;-49
2023/06/15 14:11:50;;;;;;;4.10;3.70;;;;;;;21.97;38.16;97716.13;6238164;28;20227;-47
2023/06/15 14:14:52;;;;;;;3.67;3.37;;;;;;;21.98;38.18;97706.88;6243253;28;20235;-47
2023/06/15 14:17:55;;;;;;;4.03;3.73;;;;;;;22.01;42.01;97703.50;6243518;28;20314;-47
2023/06/15 14:20:57;;;;;;;5.63;3.60;;;;;;;22.00;38.64;97701.13;6243393;28;20704;-46
2023/06/15 14:23:59;;;;;;;4.30;3.30;;;;;;;21.80;40.47;97706.00;6237115;28;20236;-49
2023/06/15 14:27:02;;;;;;;4.20;3.80;;;;;;;21.58;42.19;97692.53;6240168;28;20268;-47
2023/06/15 14:30:05;;;;;;;5.53;3.73;;;;;;;21.47;41.24;97694.72;6238448;28;20218;-46
2023/06/15 14:33:08;;;;;;;4.40;3.20;;;;;;;21.42;40.23;97686.72;6246464;28;20308;-48